Time;durP1;ratioP1;P1;durP2;ratioP2;P2;SDS_P1;SDS_P2;PMS_P1;PMS_P2;Temp;Humidity;BMP_temperature;BMP_pressure;BME280_temperature;BME280_humidity;BME280_pressure;Samples;Min_cycle;Max_cycle;Signal;HPM_P1;HPM_P2
2020/12/22 00:01:59;;;;;;;1999.90;999.90;;;12.00;99.90;;;;;;5113433;28;20051;-87
2020/12/22 00:04:27;;;;;;;1999.90;999.90;;;12.10;99.90;;;;;;5115575;28;20051;-87
2020/12/22 00:06:57;;;;;;;1999.90;999.90;;;12.10;99.90;;;;;;5115440;28;20086;-88
2020/12/22 00:09:24;;;;;;;1999.90;999.90;;;12.10;99.90;;;;;;5108286;28;20135;-88
2020/12/22 00:11:52;;;;;;;1999.90;999.90;;;12.10;99.90;;;;;;5115532;28;20048;-87
2020/12/22 00:14:19;;;;;;;1999.90;999.90;;;12.00;99.90;;;;;;5114766;28;20051;-87
2020/12/22 00:16:47;;;;;;;1999.90;999.90;;;12.00;99.90;;;;;;5118142;27;20130;-88
2020/12/22 00:19:14;;;;;;;1999.90;999.90;;;12.00;99.90;;;;;;5119908;27;20054;-87
2020/12/22 00:21:44;;;;;;;1999.90;999.90;;;12.00;99.90;;;;;;5107996;28;20067;-87
2020/12/22 00:24:11;;;;;;;1999.90;999.90;;;12.00;99.90;;;;;;5114989;28;20071;-87
2020/12/22 00:26:38;;;;;;;1999.90;999.90;;;12.00;99.90;;;;;;5114967;28;20051;-87
2020/12/22 00:29:06;;;;;;;1999.90;999.90;;;12.00;99.90;;;;;;5126911;27;20120;-87
2020/12/22 00:31:36;;;;;;;1999.90;999.90;;;12.10;99.90;;;;;;5114964;28;20058;-87
2020/12/22 00:34:04;;;;;;;1999.90;999.90;;;12.10;99.90;;;;;;5114321;28;20191;-87
2020/12/22 00:36:31;;;;;;;1999.90;999.90;;;12.00;99.90;;;;;;5117080;27;20490;-86
2020/12/22 00:38:59;;;;;;;1999.90;999.90;;;12.10;99.90;;;;;;5114308;28;20055;-87
2020/12/22 00:41:26;;;;;;;1999.90;999.90;;;12.10;99.90;;;;;;5102060;28;20059;-87
2020/12/22 00:43:53;;;;;;;1999.90;999.90;;;12.10;99.90;;;;;;5115210;28;20051;-89
2020/12/22 00:46:20;;;;;;;1999.90;999.90;;;12.00;99.90;;;;;;5113374;28;20165;-87
2020/12/22 00:48:48;;;;;;;1999.90;999.90;;;12.10;99.90;;;;;;5121030;27;20050;-87
2020/12/22 00:51:21;;;;;;;1999.90;999.90;;;12.00;99.90;;;;;;5119220;27;20043;-87
2020/12/22 00:53:50;;;;;;;1999.90;999.90;;;12.00;99.90;;;;;;5116501;27;20093;-87
2020/12/22 00:56:18;;;;;;;1999.90;999.90;;;12.00;99.90;;;;;;5116946;27;20763;-87
2020/12/22 00:58:50;;;;;;;1999.90;999.90;;;12.00;99.90;;;;;;5115978;27;20134;-87
2020/12/22 01:01:18;;;;;;;1999.90;999.90;;;12.00;99.90;;;;;;5124167;27;20062;-87
2020/12/22 01:03:46;;;;;;;1999.90;999.90;;;12.00;99.90;;;;;;5112841;28;20047;-87
2020/12/22 01:06:15;;;;;;;1999.90;999.90;;;12.00;99.90;;;;;;5114439;28;20058;-88
2020/12/22 01:08:43;;;;;;;1999.90;999.90;;;12.00;99.90;;;;;;5112826;28;20044;-88
2020/12/22 01:11:11;;;;;;;1999.90;999.90;;;12.00;99.90;;;;;;5114027;28;20088;-87
2020/12/22 01:13:39;;;;;;;1999.90;999.90;;;12.10;99.90;;;;;;5113337;28;20055;-88
2020/12/22 01:16:06;;;;;;;1999.90;999.90;;;12.10;99.90;;;;;;5114153;28;20047;-87
2020/12/22 01:18:44;;;;;;;1999.90;999.90;;;12.10;99.90;;;;;;5101475;28;20055;-87
2020/12/22 01:21:18;;;;;;;1999.90;999.90;;;12.10;99.90;;;;;;5113645;28;20154;-87
2020/12/22 01:23:45;;;;;;;1999.90;999.90;;;12.10;99.90;;;;;;5114421;27;20048;-87
2020/12/22 01:26:13;;;;;;;1999.90;999.90;;;12.10;99.90;;;;;;5113640;28;20048;-87
2020/12/22 01:28:41;;;;;;;1999.90;999.90;;;12.10;99.90;;;;;;5114333;28;20122;-87
2020/12/22 01:31:08;;;;;;;1999.90;999.90;;;12.10;99.90;;;;;;5115958;27;20134;-87
2020/12/22 01:33:35;;;;;;;1999.90;999.90;;;12.10;99.90;;;;;;5113628;28;20052;-87
2020/12/22 01:36:03;;;;;;;1999.90;999.90;;;12.10;99.90;;;;;;5113141;28;20146;-87
2020/12/22 01:38:31;;;;;;;1999.90;999.90;;;12.10;99.90;;;;;;5114089;28;20067;-87
2020/12/22 01:40:58;;;;;;;1999.90;999.90;;;12.10;99.90;;;;;;5113779;28;20047;-87
2020/12/22 01:43:25;;;;;;;1999.90;999.90;;;12.10;99.90;;;;;;5107900;28;20557;-87
2020/12/22 01:45:53;;;;;;;1999.90;999.90;;;12.10;99.90;;;;;;5106950;28;20059;-86
2020/12/22 01:48:21;;;;;;;1999.90;999.90;;;12.10;99.90;;;;;;5113477;28;20040;-87
2020/12/22 01:50:48;;;;;;;1999.90;999.90;;;12.10;99.90;;;;;;5113311;28;20051;-87
2020/12/22 01:53:16;;;;;;;1999.90;999.90;;;12.10;99.90;;;;;;5113325;28;20043;-87
2020/12/22 01:55:43;;;;;;;1999.90;999.90;;;12.20;99.90;;;;;;5102632;28;20443;-88
2020/12/22 01:58:10;;;;;;;1999.90;999.90;;;12.20;99.90;;;;;;5112919;28;20039;-88
2020/12/22 02:00:37;;;;;;;1999.90;999.90;;;12.20;99.90;;;;;;5113344;28;20051;-88
2020/12/22 02:03:07;;;;;;;1999.90;999.90;;;12.20;99.90;;;;;;5113318;28;20116;-87
2020/12/22 02:05:38;;;;;;;1999.90;999.90;;;12.20;99.90;;;;;;5113085;28;20051;-88
2020/12/22 02:08:06;;;;;;;1999.90;999.90;;;12.20;99.90;;;;;;5113379;28;20422;-87
2020/12/22 02:10:33;;;;;;;1999.90;999.90;;;12.20;99.90;;;;;;5115089;28;20151;-88
2020/12/22 02:13:00;;;;;;;1999.90;999.90;;;12.30;99.90;;;;;;5114632;28;20064;-88
2020/12/22 02:15:28;;;;;;;1999.90;999.90;;;12.30;99.90;;;;;;5118237;28;20100;-87
2020/12/22 02:17:55;;;;;;;1999.90;999.90;;;12.30;99.90;;;;;;5122336;27;20051;-87
2020/12/22 02:20:25;;;;;;;1999.90;999.90;;;12.30;99.90;;;;;;5119857;27;20052;-87
2020/12/22 02:22:54;;;;;;;1999.90;999.90;;;12.30;99.90;;;;;;5124907;27;20047;-87
2020/12/22 02:25:23;;;;;;;1999.90;999.90;;;12.20;99.90;;;;;;5123059;27;20105;-87
2020/12/22 02:27:51;;;;;;;1999.90;999.90;;;12.20;99.90;;;;;;5117020;28;20047;-87
2020/12/22 02:30:21;;;;;;;1999.90;999.90;;;12.20;99.90;;;;;;5116642;28;20063;-87
2020/12/22 02:32:48;;;;;;;1999.90;999.90;;;12.20;99.90;;;;;;5116870;28;20047;-87
2020/12/22 02:35:15;;;;;;;1999.90;999.90;;;12.20;99.90;;;;;;5117421;28;20172;-87
2020/12/22 02:37:43;;;;;;;1999.90;999.90;;;12.20;99.90;;;;;;5126593;27;20051;-87
2020/12/22 02:40:11;;;;;;;1999.90;999.90;;;12.20;99.90;;;;;;5126258;27;20047;-87
2020/12/22 02:42:38;;;;;;;1999.90;999.90;;;12.20;99.90;;;;;;5107559;27;20040;-87
2020/12/22 02:45:06;;;;;;;1999.90;999.90;;;12.20;99.90;;;;;;5116467;28;20440;-87
2020/12/22 02:47:33;;;;;;;1999.90;999.90;;;12.20;99.90;;;;;;5116133;28;20052;-86
2020/12/22 02:50:00;;;;;;;1999.90;999.90;;;12.20;99.90;;;;;;5116587;28;20067;-87
2020/12/22 02:52:27;;;;;;;1999.90;999.90;;;12.10;99.90;;;;;;5122472;27;20742;-87
2020/12/22 02:54:54;;;;;;;1999.90;999.90;;;12.20;99.90;;;;;;5116304;28;20043;-87
2020/12/22 02:57:22;;;;;;;1999.90;999.90;;;12.10;99.90;;;;;;5106986;28;20491;-87
2020/12/22 02:59:49;;;;;;;1999.90;999.90;;;12.10;99.90;;;;;;5113091;28;20040;-86
2020/12/22 03:02:16;;;;;;;1999.90;999.90;;;12.10;99.90;;;;;;5116695;28;20442;-87
2020/12/22 03:04:43;;;;;;;1999.90;999.90;;;12.10;99.90;;;;;;5128658;27;20099;-87
2020/12/22 03:07:10;;;;;;;1999.90;999.90;;;12.20;99.90;;;;;;5116189;28;20055;-87
2020/12/22 03:09:37;;;;;;;1999.90;999.90;;;12.10;99.90;;;;;;5119596;27;20132;-86
2020/12/22 03:12:06;;;;;;;1999.90;999.90;;;12.20;99.90;;;;;;5114534;28;20081;-86
2020/12/22 03:14:34;;;;;;;1999.90;999.90;;;12.10;99.90;;;;;;5109904;28;20386;-86
2020/12/22 03:17:01;;;;;;;1999.90;999.90;;;12.10;99.90;;;;;;5115757;28;20039;-86
2020/12/22 03:19:28;;;;;;;1999.90;999.90;;;12.10;99.90;;;;;;5115334;28;20044;-86
2020/12/22 03:21:55;;;;;;;1999.90;999.90;;;12.10;99.90;;;;;;5128729;27;20047;-86
2020/12/22 03:24:22;;;;;;;1999.90;999.90;;;12.10;99.90;;;;;;5115653;28;20138;-86
2020/12/22 03:26:49;;;;;;;1999.90;999.90;;;12.10;99.90;;;;;;5114702;28;20047;-85
2020/12/22 03:29:17;;;;;;;1999.90;999.90;;;12.10;99.90;;;;;;5123661;27;20039;-85
2020/12/22 03:31:45;;;;;;;1999.90;999.90;;;12.10;99.90;;;;;;5124075;27;20744;-86
2020/12/22 03:34:12;;;;;;;1999.90;999.90;;;12.10;99.90;;;;;;5116410;27;20069;-85
2020/12/22 03:36:39;;;;;;;1999.90;999.90;;;12.10;99.90;;;;;;5117664;27;20051;-85
2020/12/22 03:39:06;;;;;;;1999.90;999.90;;;12.10;99.90;;;;;;5112139;27;20185;-85
2020/12/22 03:41:33;;;;;;;1999.90;999.90;;;12.10;99.90;;;;;;5114845;28;20170;-86
2020/12/22 03:44:00;;;;;;;1999.90;999.90;;;12.10;99.90;;;;;;5115502;28;20448;-85
2020/12/22 03:46:27;;;;;;;1999.90;999.90;;;12.10;99.90;;;;;;5115727;28;20090;-85
2020/12/22 03:48:55;;;;;;;1999.90;999.90;;;12.20;99.90;;;;;;5114791;28;20058;-85
2020/12/22 03:51:22;;;;;;;1999.90;999.90;;;12.10;99.90;;;;;;5117023;27;20074;-85
2020/12/22 03:53:49;;;;;;;1999.90;999.90;;;12.10;99.90;;;;;;5114828;28;20051;-85
2020/12/22 03:56:16;;;;;;;1999.90;999.90;;;12.10;99.90;;;;;;5106074;27;20168;-85
2020/12/22 03:58:43;;;;;;;1999.90;999.90;;;12.10;99.90;;;;;;5124653;27;20079;-85
2020/12/22 04:01:10;;;;;;;1999.90;999.90;;;12.10;99.90;;;;;;5113984;28;20622;-85
2020/12/22 04:03:38;;;;;;;1999.90;999.90;;;12.10;99.90;;;;;;5104812;28;20052;-85
2020/12/22 04:06:08;;;;;;;1999.90;999.90;;;12.10;99.90;;;;;;5117641;27;20047;-86
2020/12/22 04:08:35;;;;;;;1999.90;999.90;;;12.10;99.90;;;;;;5108447;28;20072;-85
2020/12/22 04:11:02;;;;;;;1999.90;999.90;;;12.10;99.90;;;;;;5108879;28;20047;-86
2020/12/22 04:13:30;;;;;;;1999.90;999.90;;;12.10;99.90;;;;;;5113652;28;20083;-86
2020/12/22 04:15:59;;;;;;;1999.90;999.90;;;12.10;99.90;;;;;;5107010;28;20059;-85
2020/12/22 04:18:26;;;;;;;1999.90;999.90;;;12.10;99.90;;;;;;5114156;28;20124;-85
2020/12/22 04:20:57;;;;;;;1999.90;999.90;;;12.10;99.90;;;;;;5114184;28;20111;-85
2020/12/22 04:23:25;;;;;;;1999.90;999.90;;;12.10;99.90;;;;;;5113906;28;20075;-86
2020/12/22 04:25:55;;;;;;;1999.90;999.90;;;12.10;99.90;;;;;;5114438;28;20422;-85
2020/12/22 04:28:22;;;;;;;1999.90;999.90;;;12.10;99.90;;;;;;5114073;28;20089;-86
2020/12/22 04:30:48;;;;;;;1999.90;999.90;;;12.10;99.90;;;;;;5113984;28;20047;-85
2020/12/22 04:33:16;;;;;;;1999.90;999.90;;;12.10;99.90;;;;;;5114386;28;20048;-86
2020/12/22 04:35:43;;;;;;;1999.90;999.90;;;12.10;99.90;;;;;;5113794;28;20108;-86
2020/12/22 04:38:10;;;;;;;1999.90;999.90;;;12.20;99.90;;;;;;5113767;28;20120;-86
2020/12/22 04:40:38;;;;;;;1999.90;999.90;;;12.20;99.90;;;;;;5104707;28;20130;-86
2020/12/22 04:43:05;;;;;;;1999.90;999.90;;;12.20;99.90;;;;;;5114290;28;20063;-86
2020/12/22 04:45:32;;;;;;;1999.90;999.90;;;12.20;99.90;;;;;;5114094;28;20075;-85
2020/12/22 04:47:59;;;;;;;1999.90;999.90;;;12.20;99.90;;;;;;5113801;28;20093;-85
2020/12/22 04:50:26;;;;;;;1999.90;999.90;;;12.20;99.90;;;;;;5113482;28;20043;-86
2020/12/22 04:52:53;;;;;;;1999.90;999.90;;;12.20;99.90;;;;;;5113785;28;20126;-86
2020/12/22 04:55:21;;;;;;;1999.90;999.90;;;12.20;99.90;;;;;;5121047;27;20075;-84
2020/12/22 04:57:50;;;;;;;1999.90;999.90;;;12.20;99.90;;;;;;5113554;28;20071;-86
2020/12/22 05:00:18;;;;;;;1999.90;999.90;;;12.20;99.90;;;;;;5113535;28;20485;-85
2020/12/22 05:02:46;;;;;;;1999.90;999.90;;;12.20;99.90;;;;;;5113034;28;20482;-86
2020/12/22 05:05:13;;;;;;;1999.90;999.90;;;12.20;99.90;;;;;;5113716;28;20489;-85
2020/12/22 05:07:41;;;;;;;1999.90;999.90;;;12.20;99.90;;;;;;5112781;28;20122;-85
2020/12/22 05:10:09;;;;;;;1999.90;999.90;;;12.20;99.90;;;;;;5113319;28;20055;-86
2020/12/22 05:12:38;;;;;;;1999.90;999.90;;;12.20;99.90;;;;;;5112924;28;20055;-86
2020/12/22 05:15:11;;;;;;;1999.90;999.90;;;12.20;99.90;;;;;;5113314;28;20459;-85
2020/12/22 05:17:41;;;;;;;1999.90;999.90;;;12.20;99.90;;;;;;5113297;28;20071;-86
2020/12/22 05:20:11;;;;;;;1999.90;999.90;;;12.20;99.90;;;;;;5112899;28;20067;-84
2020/12/22 05:22:39;;;;;;;1999.90;999.90;;;12.20;99.90;;;;;;5107369;28;20052;-86
2020/12/22 05:25:06;;;;;;;1999.90;999.90;;;12.20;99.90;;;;;;5111199;28;20053;-86
2020/12/22 05:27:33;;;;;;;1999.90;999.90;;;12.20;99.90;;;;;;5113052;28;20097;-85
2020/12/22 05:30:02;;;;;;;1999.90;999.90;;;12.20;99.90;;;;;;5112906;28;20139;-85
2020/12/22 05:32:30;;;;;;;1999.90;999.90;;;12.30;99.90;;;;;;5112817;28;20126;-85
2020/12/22 05:34:58;;;;;;;1999.90;999.90;;;12.20;99.90;;;;;;5112845;28;20122;-85
2020/12/22 05:37:25;;;;;;;1999.90;999.90;;;12.20;99.90;;;;;;5113002;28;20130;-85
2020/12/22 05:39:53;;;;;;;1999.90;999.90;;;12.20;99.90;;;;;;5112876;28;20131;-86
2020/12/22 05:42:20;;;;;;;1999.90;999.90;;;12.20;99.90;;;;;;5112669;28;20140;-86
2020/12/22 05:44:48;;;;;;;1999.90;999.90;;;12.30;99.90;;;;;;5112791;28;20079;-86
2020/12/22 05:47:17;;;;;;;1999.90;999.90;;;12.20;99.90;;;;;;5112873;28;20043;-85
2020/12/22 05:49:56;;;;;;;1999.90;999.90;;;12.20;99.90;;;;;;5111972;28;20135;-86
2020/12/22 05:52:24;;;;;;;1999.90;999.90;;;12.20;99.90;;;;;;5112588;28;20743;-85
2020/12/22 05:54:53;;;;;;;1999.90;999.90;;;12.20;99.90;;;;;;5112171;28;20047;-86
2020/12/22 05:57:21;;;;;;;1999.90;999.90;;;12.10;99.90;;;;;;5112504;28;20138;-86
2020/12/22 05:59:49;;;;;;;1999.90;999.90;;;12.20;99.90;;;;;;5112524;28;20046;-86
2020/12/22 06:02:27;;;;;;;1999.90;999.90;;;12.20;99.90;;;;;;5112120;28;20490;-85
2020/12/22 06:04:57;;;;;;;1999.90;999.90;;;12.20;99.90;;;;;;5112528;28;20100;-86
2020/12/22 06:07:24;;;;;;;1999.90;999.90;;;12.20;99.90;;;;;;5112385;28;20061;-86
2020/12/22 06:09:51;;;;;;;1999.90;999.90;;;12.20;99.90;;;;;;5112204;28;20043;-85
2020/12/22 06:12:20;;;;;;;1999.90;999.90;;;12.20;99.90;;;;;;5106631;28;20125;-85
2020/12/22 06:14:49;;;;;;;1999.90;999.90;;;12.20;99.90;;;;;;5104322;28;20487;-85
2020/12/22 06:17:16;;;;;;;1999.90;999.90;;;12.10;99.90;;;;;;5106248;28;20052;-85
2020/12/22 06:19:45;;;;;;;1999.90;999.90;;;12.10;99.90;;;;;;5112006;28;20096;-85
2020/12/22 06:22:13;;;;;;;1999.90;999.90;;;12.10;99.90;;;;;;5112418;28;20131;-86
2020/12/22 06:24:41;;;;;;;1999.90;999.90;;;12.10;99.90;;;;;;5110082;28;20191;-86
2020/12/22 06:27:10;;;;;;;1999.90;999.90;;;12.10;99.90;;;;;;5111134;28;20051;-85
2020/12/22 06:29:41;;;;;;;1999.90;999.90;;;12.10;99.90;;;;;;5112612;28;20073;-86
2020/12/22 06:32:26;;;;;;;1999.90;999.90;;;12.10;99.90;;;;;;5112644;28;20139;-85
2020/12/22 06:34:54;;;;;;;1999.90;999.90;;;12.10;99.90;;;;;;5110075;28;20516;-85
2020/12/22 06:37:24;;;;;;;1999.90;999.90;;;12.10;99.90;;;;;;5112109;28;20061;-85
2020/12/22 06:39:52;;;;;;;1999.90;999.90;;;12.10;99.90;;;;;;5112334;28;20054;-85
2020/12/22 06:42:43;;;;;;;1999.90;999.90;;;12.10;99.90;;;;;;5111950;28;20052;-85
2020/12/22 06:45:25;;;;;;;1999.90;999.90;;;12.10;99.90;;;;;;5112189;28;20043;-85
2020/12/22 06:47:59;;;;;;;1999.90;999.90;;;12.10;99.90;;;;;;5102127;28;20058;-85
2020/12/22 06:50:37;;;;;;;1999.90;999.90;;;12.10;99.90;;;;;;5110177;28;20047;-85
2020/12/22 06:53:05;;;;;;;1999.90;999.90;;;12.10;99.90;;;;;;5113941;28;20082;-85
2020/12/22 06:55:49;;;;;;;1999.90;999.90;;;12.10;99.90;;;;;;5114048;28;20066;-85
2020/12/22 06:58:36;;;;;;;1999.90;999.90;;;12.10;99.90;;;;;;5112360;28;20047;-86
2020/12/22 07:01:29;;;;;;;1999.90;999.90;;;12.10;99.90;;;;;;5113264;28;20098;-86
2020/12/22 07:04:20;;;;;;;1999.90;999.90;;;12.10;99.90;;;;;;5110312;28;20662;-86
2020/12/22 07:06:58;;;;;;;1999.90;999.90;;;12.10;99.90;;;;;;5116325;28;20149;-86
2020/12/22 07:09:27;;;;;;;1999.90;999.90;;;12.10;99.90;;;;;;5124344;27;20540;-85
2020/12/22 07:12:08;;;;;;;1999.90;999.90;;;12.10;99.90;;;;;;5116986;27;20530;-85
2020/12/22 07:14:37;;;;;;;1999.90;999.90;;;12.10;99.90;;;;;;5114962;28;20093;-86
2020/12/22 07:17:05;;;;;;;1999.90;999.90;;;12.20;99.90;;;;;;5121851;27;20105;-86
2020/12/22 07:19:35;;;;;;;1999.90;999.90;;;12.10;99.90;;;;;;5115739;28;20092;-86
2020/12/22 07:22:04;;;;;;;1999.90;999.90;;;12.10;99.90;;;;;;5121855;27;20048;-86
2020/12/22 07:24:33;;;;;;;1999.90;999.90;;;12.00;99.90;;;;;;5115499;28;20109;-86
2020/12/22 07:27:01;;;;;;;1999.90;999.90;;;12.00;99.90;;;;;;5120628;27;20071;-86
2020/12/22 07:29:28;;;;;;;1999.90;999.90;;;12.00;99.90;;;;;;5115255;28;20105;-85
2020/12/22 07:31:56;;;;;;;1999.90;999.90;;;12.00;99.90;;;;;;5113819;28;20086;-86
2020/12/22 07:34:23;;;;;;;1999.90;999.90;;;12.00;99.90;;;;;;5115290;28;20090;-86
2020/12/22 07:36:51;;;;;;;1999.90;999.90;;;12.00;99.90;;;;;;5115132;28;20078;-86
2020/12/22 07:39:21;;;;;;;1999.90;999.90;;;11.90;99.90;;;;;;5115360;28;20051;-85
2020/12/22 07:41:50;;;;;;;1999.90;999.90;;;11.90;99.90;;;;;;5107076;28;20108;-86
2020/12/22 07:44:19;;;;;;;1999.90;999.90;;;11.90;99.90;;;;;;5115666;28;20073;-87
2020/12/22 07:46:47;;;;;;;1999.90;999.90;;;11.90;99.90;;;;;;5115705;28;20055;-87
2020/12/22 07:49:16;;;;;;;1999.90;999.90;;;11.90;99.90;;;;;;5105487;28;20040;-87
2020/12/22 07:51:48;;;;;;;1999.90;999.90;;;11.90;99.90;;;;;;5126005;27;20079;-87
2020/12/22 07:54:16;;;;;;;1999.90;999.90;;;11.80;99.90;;;;;;5115231;28;20075;-88
2020/12/22 07:56:45;;;;;;;1999.90;999.90;;;11.80;99.90;;;;;;5115846;27;20051;-87
2020/12/22 07:59:14;;;;;;;1999.90;999.90;;;11.80;99.90;;;;;;5111394;28;20104;-88
2020/12/22 08:01:45;;;;;;;1999.90;999.90;;;11.80;99.90;;;;;;5115400;28;20443;-87
2020/12/22 08:04:17;;;;;;;1999.90;999.90;;;11.80;99.90;;;;;;5116153;27;20056;-87
2020/12/22 08:06:53;;;;;;;1999.90;999.90;;;11.80;99.90;;;;;;5115099;28;20134;-87
2020/12/22 08:09:28;;;;;;;1999.90;999.90;;;11.80;99.90;;;;;;5117733;27;20079;-87
2020/12/22 08:11:57;;;;;;;1999.90;999.90;;;11.90;99.90;;;;;;5117325;27;20078;-86
2020/12/22 08:14:26;;;;;;;1999.90;999.90;;;11.90;99.90;;;;;;5114301;28;20124;-87
2020/12/22 08:16:56;;;;;;;1999.90;999.90;;;11.90;99.90;;;;;;5115371;28;20047;-87
2020/12/22 08:19:23;;;;;;;1999.90;999.90;;;11.90;99.90;;;;;;5119421;27;20052;-89
2020/12/22 08:21:56;;;;;;;1999.90;999.90;;;12.00;99.90;;;;;;5115056;28;20071;-89
2020/12/22 08:24:24;;;;;;;1999.90;999.90;;;12.00;99.90;;;;;;5115689;28;20051;-89
2020/12/22 08:26:52;;;;;;;1999.90;999.90;;;12.00;99.90;;;;;;5115410;28;20078;-90
2020/12/22 08:29:25;;;;;;;1999.90;999.90;;;12.00;99.90;;;;;;5128224;27;20044;-89
2020/12/22 08:31:56;;;;;;;1999.90;999.90;;;12.00;99.90;;;;;;5115245;28;20051;-89
2020/12/22 08:34:23;;;;;;;1999.90;999.90;;;12.00;99.90;;;;;;5114854;28;20079;-89
2020/12/22 08:36:50;;;;;;;1999.90;999.90;;;12.00;99.90;;;;;;5115276;28;20043;-89
2020/12/22 08:39:20;;;;;;;1999.90;999.90;;;11.90;99.90;;;;;;5115925;27;20131;-89
2020/12/22 08:41:49;;;;;;;1999.90;999.90;;;12.00;99.90;;;;;;5113192;28;20047;-89
2020/12/22 08:44:17;;;;;;;1999.90;999.90;;;11.90;99.90;;;;;;5115092;28;20074;-88
2020/12/22 08:46:46;;;;;;;1999.90;999.90;;;11.90;99.90;;;;;;5114790;28;20048;-89
2020/12/22 08:49:15;;;;;;;1999.90;999.90;;;12.00;99.90;;;;;;5101098;28;20105;-88
2020/12/22 08:51:45;;;;;;;1999.90;999.90;;;11.90;99.90;;;;;;5114543;28;20086;-89
2020/12/22 08:54:16;;;;;;;1999.90;999.90;;;11.90;99.90;;;;;;5114588;28;20122;-88
2020/12/22 08:56:44;;;;;;;1999.90;999.90;;;11.80;99.90;;;;;;5116097;28;20457;-90
2020/12/22 08:59:12;;;;;;;1999.90;999.90;;;11.80;99.90;;;;;;5116615;28;20051;-86
2020/12/22 09:01:41;;;;;;;1999.90;999.90;;;11.80;99.90;;;;;;5115577;27;20077;-87
2020/12/22 09:04:11;;;;;;;1999.90;999.90;;;11.70;99.90;;;;;;5111643;28;20147;-87
2020/12/22 09:06:40;;;;;;;1999.90;999.90;;;11.70;99.90;;;;;;5103392;28;20047;-89
2020/12/22 09:09:11;;;;;;;1999.90;999.90;;;11.70;99.90;;;;;;5115353;27;20044;-90
2020/12/22 09:11:39;;;;;;;1999.90;999.90;;;11.70;99.90;;;;;;5113911;28;20079;-90
2020/12/22 09:14:10;;;;;;;1999.90;999.90;;;11.70;99.90;;;;;;5113780;28;20498;-90
2020/12/22 09:16:54;;;;;;;1999.90;999.90;;;11.70;99.90;;;;;;5113626;28;20091;-90
2020/12/22 09:19:28;;;;;;;1999.90;999.90;;;11.70;99.90;;;;;;5113729;28;20047;-89
2020/12/22 09:22:00;;;;;;;1999.90;999.90;;;11.60;99.90;;;;;;5113309;28;20055;-89
2020/12/22 09:24:28;;;;;;;1999.90;999.90;;;11.50;99.90;;;;;;5113630;28;20055;-90
2020/12/22 09:27:03;;;;;;;1999.90;999.90;;;11.50;99.90;;;;;;5113759;28;20108;-89
2020/12/22 09:29:31;;;;;;;1999.90;999.90;;;11.30;99.90;;;;;;5113683;28;20047;-90
2020/12/22 09:32:00;;;;;;;1999.90;999.90;;;11.30;99.90;;;;;;5113823;28;20126;-89
2020/12/22 09:34:32;;;;;;;1999.90;999.90;;;11.20;99.90;;;;;;5113611;28;20100;-89
2020/12/22 09:37:01;;;;;;;1999.90;999.90;;;11.20;99.90;;;;;;5113791;28;20097;-90
2020/12/22 09:39:29;;;;;;;1999.90;999.90;;;11.10;99.90;;;;;;5113478;28;20521;-90
2020/12/22 09:41:57;;;;;;;1999.90;999.90;;;11.00;99.90;;;;;;5113448;28;20047;-89
2020/12/22 09:44:24;;;;;;;1999.90;999.90;;;11.00;99.90;;;;;;5114050;28;20055;-89
2020/12/22 09:46:52;;;;;;;1999.90;999.90;;;10.90;99.90;;;;;;5108803;27;20128;-90
2020/12/22 09:49:20;;;;;;;1999.90;999.90;;;10.90;99.90;;;;;;5113421;28;20131;-89
2020/12/22 09:51:48;;;;;;;1999.90;999.90;;;10.90;99.90;;;;;;5113519;28;20540;-89
2020/12/22 09:54:19;;;;;;;1999.90;999.90;;;10.90;99.90;;;;;;5113137;28;20466;-89
2020/12/22 09:56:46;;;;;;;1999.90;999.90;;;10.90;99.90;;;;;;5113274;28;20043;-90
2020/12/22 09:59:14;;;;;;;1999.90;999.90;;;10.90;99.90;;;;;;5108247;28;20688;-90
2020/12/22 10:01:42;;;;;;;1999.90;999.90;;;10.90;99.90;;;;;;5106535;28;20660;-89
2020/12/22 10:04:10;;;;;;;1999.90;999.90;;;10.90;99.90;;;;;;5112410;28;20044;-90
2020/12/22 10:06:38;;;;;;;1999.90;999.90;;;10.80;99.90;;;;;;5112899;28;20483;-90
2020/12/22 10:09:06;;;;;;;1999.90;999.90;;;10.80;99.90;;;;;;5111478;28;20093;-90
2020/12/22 10:11:35;;;;;;;1999.90;999.90;;;10.70;99.90;;;;;;5110062;28;20240;-89
2020/12/22 10:14:04;;;;;;;1999.90;999.90;;;10.70;99.90;;;;;;5112587;28;20051;-89
2020/12/22 10:16:35;;;;;;;1999.90;999.90;;;10.70;99.90;;;;;;5112770;28;20048;-89
2020/12/22 10:19:03;;;;;;;1999.90;999.90;;;10.60;99.90;;;;;;5112707;28;20047;-89
2020/12/22 10:21:30;;;;;;;1999.90;999.90;;;10.70;99.90;;;;;;5115897;28;20452;-89
2020/12/22 10:24:00;;;;;;;1999.90;999.90;;;10.70;99.90;;;;;;5113485;28;20043;-89
2020/12/22 10:26:28;;;;;;;1999.90;999.90;;;10.60;99.90;;;;;;5112991;28;20044;-89
2020/12/22 10:28:56;;;;;;;1999.90;999.90;;;10.60;99.90;;;;;;5110775;28;20119;-90
2020/12/22 10:31:26;;;;;;;1999.90;999.90;;;10.60;99.90;;;;;;5113298;28;20406;-90
2020/12/22 10:33:56;;;;;;;1999.90;999.90;;;10.60;99.90;;;;;;5112411;28;20131;-90
2020/12/22 10:36:24;;;;;;;1999.90;999.90;;;10.60;99.90;;;;;;5111029;28;20082;-89
2020/12/22 10:38:52;;;;;;;1999.90;999.90;;;10.50;99.90;;;;;;5116175;28;20134;-89
2020/12/22 10:41:20;;;;;;;1999.90;999.90;;;10.50;99.90;;;;;;5116638;28;20057;-89
2020/12/22 10:43:48;;;;;;;1999.90;999.90;;;10.50;99.90;;;;;;5116984;28;20180;-90
2020/12/22 10:46:15;;;;;;;1999.90;999.90;;;10.50;99.90;;;;;;5116707;28;20044;-89
2020/12/22 10:48:43;;;;;;;1999.90;999.90;;;10.60;99.90;;;;;;5116287;28;20086;-89
2020/12/22 10:51:12;;;;;;;1999.90;999.90;;;10.60;99.90;;;;;;5124372;27;20043;-89
2020/12/22 10:53:39;;;;;;;1999.90;999.90;;;10.60;99.90;;;;;;5116665;28;20488;-89
2020/12/22 10:56:10;;;;;;;1999.90;999.90;;;10.70;99.90;;;;;;5116284;28;20044;-89
2020/12/22 10:58:38;;;;;;;1999.90;999.90;;;10.60;99.90;;;;;;5116817;28;20391;-90
2020/12/22 11:01:07;;;;;;;1999.90;999.90;;;10.60;99.90;;;;;;5116050;28;20051;-89
2020/12/22 11:03:34;;;;;;;1999.90;999.90;;;10.70;99.90;;;;;;5115980;28;20094;-90
2020/12/22 11:06:20;;;;;;;1999.90;999.90;;;10.70;99.90;;;;;;5116609;28;20120;-90
2020/12/22 11:08:48;;;;;;;1999.90;999.90;;;10.60;99.90;;;;;;5114084;28;20048;-89
2020/12/22 11:11:16;;;;;;;1999.90;999.90;;;10.70;99.90;;;;;;5115665;28;20047;-90
2020/12/22 11:13:43;;;;;;;1999.90;999.90;;;10.70;99.90;;;;;;5116048;28;20078;-89
2020/12/22 11:16:11;;;;;;;1999.90;999.90;;;10.60;99.90;;;;;;5116306;28;20504;-89
2020/12/22 11:18:39;;;;;;;1999.90;999.90;;;10.60;99.90;;;;;;5116045;28;20270;-90
2020/12/22 11:21:10;;;;;;;1999.90;999.90;;;10.60;99.90;;;;;;5116238;28;20052;-89
2020/12/22 11:23:44;;;;;;;1999.90;999.90;;;10.50;99.90;;;;;;5122510;27;20043;-89
2020/12/22 11:26:17;;;;;;;1999.90;999.90;;;10.50;99.90;;;;;;5116093;28;20040;-89
2020/12/22 11:28:49;;;;;;;1999.90;999.90;;;10.40;99.90;;;;;;5115788;28;20409;-89
2020/12/22 11:31:17;;;;;;;1999.90;999.90;;;10.50;99.90;;;;;;5103436;28;20059;-89
2020/12/22 11:33:46;;;;;;;1999.90;999.90;;;10.40;99.90;;;;;;5115610;28;20069;-90
2020/12/22 11:36:18;;;;;;;1999.90;999.90;;;10.40;99.90;;;;;;5111813;28;20557;-89
2020/12/22 11:38:46;;;;;;;1999.90;999.90;;;10.50;99.90;;;;;;5110892;28;20138;-89
2020/12/22 11:41:20;;;;;;;1999.90;999.90;;;10.50;99.90;;;;;;5112981;28;20596;-89
2020/12/22 11:43:47;;;;;;;1999.90;999.90;;;10.60;99.90;;;;;;5111367;28;20047;-89
2020/12/22 11:46:15;;;;;;;1999.90;999.90;;;10.60;99.90;;;;;;5110413;28;20124;-89
2020/12/22 11:48:45;;;;;;;1999.90;999.90;;;10.60;99.90;;;;;;5111818;28;20189;-89
2020/12/22 11:51:15;;;;;;;1999.90;999.90;;;10.50;99.90;;;;;;5112774;28;20050;-89
2020/12/22 11:53:43;;;;;;;1999.90;999.90;;;10.50;99.90;;;;;;5111401;28;20116;-89
2020/12/22 11:56:11;;;;;;;1999.90;999.90;;;10.40;99.90;;;;;;5114292;28;20105;-89
2020/12/22 11:58:40;;;;;;;1999.90;999.90;;;10.40;99.90;;;;;;5113115;28;20134;-89
2020/12/22 12:01:08;;;;;;;1999.90;999.90;;;10.40;99.90;;;;;;5112346;28;20068;-86
2020/12/22 12:03:35;;;;;;;1999.90;999.90;;;10.40;99.90;;;;;;5113256;28;20052;-86
2020/12/22 12:06:08;;;;;;;1999.90;999.90;;;10.40;99.90;;;;;;5112574;28;20039;-86
2020/12/22 12:08:35;;;;;;;1999.90;999.90;;;10.40;99.90;;;;;;5108604;28;20047;-86